createdAt,value
2022-12-31T00:00:11.753Z,90082.58
2022-12-31T00:02:39.791Z,90083.91
2022-12-31T00:05:07.491Z,90084.33
2022-12-31T00:10:04.343Z,90083.61
2022-12-31T00:12:31.703Z,90084.77
2022-12-31T00:14:58.683Z,90088.30
2022-12-31T00:17:25.932Z,90087.40
2022-12-31T00:19:53.454Z,90086.56
2022-12-31T00:22:20.397Z,90085.08
2022-12-31T00:24:47.604Z,90080.72
2022-12-31T00:27:15.885Z,90083.67
2022-12-31T00:29:42.846Z,90084.14
2022-12-31T00:32:10.012Z,90080.73
2022-12-31T00:34:37.446Z,90078.96
2022-12-31T00:37:04.602Z,90079.73
2022-12-31T00:39:32.050Z,90079.83
2022-12-31T00:41:59.377Z,90080.37
2022-12-31T00:44:26.462Z,90084.31
2022-12-31T00:46:54.370Z,90085.76
2022-12-31T00:49:21.204Z,90083.39
2022-12-31T00:51:48.559Z,90084.72
2022-12-31T00:54:15.659Z,90088.00
2022-12-31T00:56:43.283Z,90081.52
2022-12-31T00:59:10.342Z,90084.02
2022-12-31T01:01:40.011Z,90087.81
2022-12-31T01:04:19.329Z,90091.30
2022-12-31T01:06:47.302Z,90101.05
2022-12-31T01:09:16.461Z,90101.13
2022-12-31T01:11:43.405Z,90106.46
2022-12-31T01:14:17.120Z,90107.75
2022-12-31T01:16:50.492Z,90116.10
2022-12-31T01:19:29.001Z,90114.68
2022-12-31T01:21:56.382Z,90119.42
2022-12-31T01:24:24.009Z,90123.67
2022-12-31T01:26:51.769Z,90126.09
2022-12-31T01:29:19.215Z,90127.09
2022-12-31T01:31:46.492Z,90128.19
2022-12-31T01:34:13.849Z,90130.63
2022-12-31T01:36:41.490Z,90132.55
2022-12-31T01:39:10.848Z,90137.59
2022-12-31T01:41:43.472Z,90139.95
2022-12-31T01:44:13.956Z,90140.45
2022-12-31T01:46:42.804Z,90141.39
2022-12-31T01:49:21.605Z,90144.74
2022-12-31T01:51:54.804Z,90151.13
2022-12-31T01:54:22.819Z,90148.70
2022-12-31T01:56:51.009Z,90151.90
2022-12-31T01:59:19.245Z,90152.10
2022-12-31T02:01:48.595Z,90153.84
2022-12-31T02:04:16.405Z,90159.52
2022-12-31T02:07:03.184Z,90159.26
2022-12-31T02:09:32.046Z,90159.19
2022-12-31T02:11:59.258Z,90159.85
2022-12-31T02:14:35.046Z,90162.27
2022-12-31T02:17:10.760Z,90157.95
2022-12-31T02:20:06.060Z,90163.05
2022-12-31T02:23:06.403Z,90160.67
2022-12-31T02:25:50.819Z,90161.48
2022-12-31T02:28:42.092Z,90162.13
2022-12-31T02:31:30.857Z,90161.02
2022-12-31T02:34:12.666Z,90167.35
2022-12-31T02:36:43.032Z,90168.71
2022-12-31T02:39:11.817Z,90168.09
2022-12-31T02:41:51.860Z,90169.59
2022-12-31T02:44:26.365Z,90164.20
2022-12-31T02:47:00.848Z,90170.33
2022-12-31T02:49:52.720Z,90174.67
2022-12-31T02:52:41.724Z,90176.44
2022-12-31T02:55:19.904Z,90169.23
2022-12-31T02:57:48.560Z,90175.98
2022-12-31T03:00:36.136Z,90177.70
2022-12-31T03:03:04.210Z,90170.66
2022-12-31T03:05:34.741Z,90175.19
2022-12-31T03:08:02.327Z,90185.56
2022-12-31T03:10:29.530Z,90190.36
2022-12-31T03:12:57.041Z,90189.53
2022-12-31T03:15:26.505Z,90184.41
2022-12-31T03:18:12.161Z,90187.29
2022-12-31T03:21:01.764Z,90185.81
2022-12-31T03:23:37.693Z,90181.16
2022-12-31T03:26:10.534Z,90179.48
2022-12-31T03:28:40.529Z,90176.04
2022-12-31T03:31:08.303Z,90180.23
2022-12-31T03:33:40.927Z,90176.36
2022-12-31T03:36:12.342Z,90176.58
2022-12-31T03:38:40.325Z,90174.56
2022-12-31T03:41:09.760Z,90174.86
2022-12-31T03:43:37.329Z,90177.73
2022-12-31T03:46:04.865Z,90181.80
2022-12-31T03:48:31.969Z,90181.65
2022-12-31T03:50:58.820Z,90181.54
2022-12-31T03:53:25.935Z,90175.35
2022-12-31T03:55:53.598Z,90169.35
2022-12-31T03:58:21.769Z,90169.33
2022-12-31T04:00:49.829Z,90170.48
2022-12-31T04:03:17.059Z,90172.61
2022-12-31T04:05:44.286Z,90173.96
2022-12-31T04:08:11.021Z,90173.91
2022-12-31T04:10:38.591Z,90179.36
2022-12-31T04:13:06.408Z,90179.77
2022-12-31T04:15:33.603Z,90179.55
2022-12-31T04:18:00.610Z,90181.22
2022-12-31T04:20:28.052Z,90185.42
2022-12-31T04:22:55.249Z,90191.27
2022-12-31T04:25:22.769Z,90193.59
2022-12-31T04:27:49.764Z,90194.98
2022-12-31T04:30:17.017Z,90196.11
2022-12-31T04:32:43.882Z,90195.11
2022-12-31T04:35:12.566Z,90193.36
2022-12-31T04:37:39.288Z,90197.41
2022-12-31T04:40:07.680Z,90197.83
2022-12-31T04:42:35.924Z,90201.16
2022-12-31T04:45:03.896Z,90201.83
2022-12-31T04:47:31.535Z,90208.05
2022-12-31T04:49:58.689Z,90215.91
2022-12-31T04:52:25.862Z,90218.90
2022-12-31T04:54:53.125Z,90217.91
2022-12-31T04:57:20.339Z,90220.24
2022-12-31T04:59:47.451Z,90226.10
2022-12-31T05:02:15.210Z,90231.18
2022-12-31T05:04:44.412Z,90238.34
2022-12-31T05:07:11.367Z,90246.71
2022-12-31T05:09:38.608Z,90248.73
2022-12-31T05:12:06.241Z,90250.90
2022-12-31T05:14:33.611Z,90252.86
2022-12-31T05:17:01.242Z,90259.69
2022-12-31T05:19:28.474Z,90266.98
2022-12-31T05:22:14.470Z,90272.45
2022-12-31T05:24:42.113Z,90269.98
2022-12-31T05:27:09.415Z,90270.35
2022-12-31T05:29:36.288Z,90273.34
2022-12-31T05:32:03.862Z,90273.02
2022-12-31T05:34:31.450Z,90275.34
2022-12-31T05:36:58.291Z,90278.39
2022-12-31T05:39:25.875Z,90275.54
2022-12-31T05:41:53.124Z,90281.73
2022-12-31T05:44:20.771Z,90284.49
2022-12-31T05:46:48.027Z,90290.49
2022-12-31T05:49:16.520Z,90298.66
2022-12-31T05:51:43.451Z,90292.40
2022-12-31T05:54:11.006Z,90295.48
2022-12-31T05:56:38.504Z,90298.84
2022-12-31T05:59:06.088Z,90298.70
2022-12-31T06:01:34.364Z,90302.45
2022-12-31T06:04:01.943Z,90309.80
2022-12-31T06:06:29.277Z,90317.47
2022-12-31T06:08:56.268Z,90319.17
2022-12-31T06:11:23.368Z,90320.38
2022-12-31T06:13:50.723Z,90322.91
2022-12-31T06:16:17.949Z,90329.31
2022-12-31T06:18:50.400Z,90330.34
2022-12-31T06:21:18.971Z,90334.01
2022-12-31T06:23:46.464Z,90338.07
2022-12-31T06:26:13.926Z,90342.55
2022-12-31T06:28:41.568Z,90345.80
2022-12-31T06:31:12.533Z,90342.05
2022-12-31T06:33:40.367Z,90342.91
2022-12-31T06:36:09.051Z,90347.39
2022-12-31T06:38:38.360Z,90347.57
2022-12-31T06:41:05.846Z,90349.69
2022-12-31T06:43:34.798Z,90349.69
2022-12-31T06:46:02.751Z,90353.37
2022-12-31T06:48:30.349Z,90357.34
2022-12-31T06:50:57.836Z,90357.55
2022-12-31T06:53:25.071Z,90362.93
2022-12-31T06:55:52.678Z,90363.61
2022-12-31T06:58:20.038Z,90370.33
2022-12-31T07:01:28.908Z,90370.33
2022-12-31T07:04:32.634Z,90374.06
2022-12-31T07:07:08.793Z,90376.65
2022-12-31T07:09:54.235Z,90379.52
2022-12-31T07:12:46.500Z,90387.75
2022-12-31T07:15:36.992Z,90392.64
2022-12-31T07:18:28.323Z,90396.67
2022-12-31T07:20:56.555Z,90402.71
2022-12-31T07:23:23.763Z,90406.36
2022-12-31T07:26:26.288Z,90409.34
2022-12-31T07:29:02.015Z,90414.43
2022-12-31T07:31:32.093Z,90422.91
2022-12-31T07:34:01.919Z,90420.06
2022-12-31T07:36:53.475Z,90423.15
2022-12-31T07:39:32.123Z,90427.52
2022-12-31T07:41:59.848Z,90423.05
2022-12-31T07:44:48.637Z,90430.02
2022-12-31T07:47:27.085Z,90433.80
2022-12-31T07:49:55.405Z,90434.94
2022-12-31T07:52:23.769Z,90438.09
2022-12-31T07:54:51.635Z,90440.55
2022-12-31T07:57:20.982Z,90437.77
2022-12-31T08:00:00.227Z,90437.33
2022-12-31T08:02:39.365Z,90443.13
2022-12-31T08:05:45.309Z,90447.30
2022-12-31T08:08:15.924Z,90451.02
2022-12-31T08:10:59.094Z,90459.52
2022-12-31T08:13:27.208Z,90466.23
2022-12-31T08:15:54.799Z,90472.08
2022-12-31T08:18:21.907Z,90475.26
2022-12-31T08:21:19.096Z,90477.87
2022-12-31T08:23:54.541Z,90477.64
2022-12-31T08:26:38.268Z,90481.67
2022-12-31T08:29:31.733Z,90481.79
2022-12-31T08:32:44.868Z,90479.71
2022-12-31T08:35:23.049Z,90484.92
2022-12-31T08:38:01.389Z,90488.77
2022-12-31T08:40:58.221Z,90490.17
2022-12-31T08:43:44.641Z,90491.23
2022-12-31T08:46:34.511Z,90494.17
2022-12-31T08:49:02.079Z,90494.64
2022-12-31T08:51:29.453Z,90500.69
2022-12-31T08:53:57.248Z,90501.21
2022-12-31T08:56:33.171Z,90499.87
2022-12-31T08:59:26.107Z,90504.54
2022-12-31T09:01:59.564Z,90508.20
2022-12-31T09:04:47.448Z,90514.80
2022-12-31T09:07:15.370Z,90513.11
2022-12-31T09:10:20.122Z,90515.56
2022-12-31T09:12:52.483Z,90516.66
2022-12-31T09:15:49.148Z,90515.88
2022-12-31T09:18:16.770Z,90516.11
2022-12-31T09:20:44.720Z,90515.70
2022-12-31T09:23:13.014Z,90512.16
2022-12-31T09:25:50.168Z,90513.48
2022-12-31T09:28:40.846Z,90517.23
2022-12-31T09:31:49.198Z,90521.27
2022-12-31T09:34:24.247Z,90522.94
2022-12-31T09:36:58.247Z,90526.98
2022-12-31T09:39:41.215Z,90526.02
2022-12-31T09:42:39.173Z,90531.32
2022-12-31T09:45:45.171Z,90531.36
2022-12-31T09:48:15.729Z,90532.02
2022-12-31T09:51:04.229Z,90534.58
2022-12-31T09:53:49.599Z,90537.61
2022-12-31T09:56:36.091Z,90537.20
2022-12-31T09:59:13.290Z,90535.95
2022-12-31T10:02:11.930Z,90536.59
2022-12-31T10:05:09.487Z,90531.75
2022-12-31T10:07:58.930Z,90537.17
2022-12-31T10:10:30.826Z,90527.21
2022-12-31T10:13:39.264Z,90536.21
2022-12-31T10:16:39.373Z,90536.50
2022-12-31T10:19:25.370Z,90538.93
2022-12-31T10:22:16.994Z,90539.91
2022-12-31T10:25:38.353Z,90537.56
2022-12-31T10:28:31.788Z,90539.64
2022-12-31T10:31:10.733Z,90536.90
2022-12-31T10:33:47.080Z,90528.63
2022-12-31T10:36:23.031Z,90529.69
2022-12-31T10:38:55.332Z,90524.45
2022-12-31T10:41:51.557Z,90532.46
2022-12-31T10:44:43.160Z,90524.83
2022-12-31T10:47:17.976Z,90523.02
2022-12-31T10:50:08.377Z,90512.23
2022-12-31T10:53:01.342Z,90503.20
2022-12-31T10:56:07.478Z,90501.38
2022-12-31T10:59:05.663Z,90507.13
2022-12-31T11:02:17.840Z,90501.96
2022-12-31T11:05:22.707Z,90507.27
2022-12-31T11:08:28.554Z,90520.81
2022-12-31T11:11:04.444Z,90526.61
2022-12-31T11:14:04.330Z,90527.66
2022-12-31T11:16:50.500Z,90520.84
2022-12-31T11:19:39.409Z,90517.79
2022-12-31T11:22:22.633Z,90524.51
2022-12-31T11:25:07.896Z,90524.81
2022-12-31T11:27:53.637Z,90523.61
2022-12-31T11:30:25.128Z,90528.08
2022-12-31T11:32:58.209Z,90525.33
2022-12-31T11:36:04.480Z,90528.08
2022-12-31T11:38:50.664Z,90525.14
2022-12-31T11:41:49.663Z,90526.54
2022-12-31T11:44:46.276Z,90518.27
2022-12-31T11:47:32.300Z,90513.70
2022-12-31T11:50:28.281Z,90514.85
2022-12-31T11:53:11.563Z,90515.78
2022-12-31T11:55:47.247Z,90514.46
2022-12-31T11:58:17.098Z,90515.66
2022-12-31T12:00:54.526Z,90511.08
2022-12-31T12:03:22.809Z,90511.13
2022-12-31T12:05:50.132Z,90509.52
2022-12-31T12:08:17.590Z,90512.22
2022-12-31T12:11:05.730Z,90505.61
2022-12-31T12:13:38.300Z,90499.20
2022-12-31T12:16:07.542Z,90497.77
2022-12-31T12:18:51.541Z,90500.13
2022-12-31T12:21:23.757Z,90498.98
2022-12-31T12:24:01.073Z,90496.63
2022-12-31T12:26:45.081Z,90491.14
2022-12-31T12:29:23.276Z,90487.32
2022-12-31T12:32:06.381Z,90490.85
2022-12-31T12:34:43.118Z,90482.65
2022-12-31T12:37:34.074Z,90479.02
2022-12-31T12:40:19.427Z,90469.71
2022-12-31T12:42:48.487Z,90468.55
2022-12-31T12:45:21.535Z,90476.27
2022-12-31T12:47:53.875Z,90476.73
2022-12-31T12:50:24.412Z,90476.39
2022-12-31T12:52:59.675Z,90477.96
2022-12-31T12:55:29.962Z,90486.70
2022-12-31T12:58:23.422Z,90483.39
2022-12-31T13:00:56.151Z,90485.34
2022-12-31T13:03:34.275Z,90487.41
2022-12-31T13:06:20.709Z,90480.23
2022-12-31T13:09:07.217Z,90477.92
2022-12-31T13:12:10.921Z,90478.21
2022-12-31T13:15:00.040Z,90474.91
2022-12-31T13:17:43.945Z,90476.17
2022-12-31T13:20:52.053Z,90477.70
2022-12-31T13:23:28.093Z,90476.39
2022-12-31T13:26:14.890Z,90472.88
2022-12-31T13:28:43.768Z,90470.41
2022-12-31T13:31:16.680Z,90471.27
2022-12-31T13:33:54.065Z,90470.27
2022-12-31T13:36:23.775Z,90464.84
2022-12-31T13:38:53.603Z,90470.27
2022-12-31T13:41:32.108Z,90469.81
2022-12-31T13:44:16.874Z,90467.08
2022-12-31T13:46:51.519Z,90466.20
2022-12-31T13:49:43.691Z,90465.84
2022-12-31T13:52:32.621Z,90471.39
2022-12-31T13:55:21.045Z,90468.35
2022-12-31T13:57:52.684Z,90468.50
2022-12-31T14:00:23.834Z,90469.27
2022-12-31T14:02:55.053Z,90465.33
2022-12-31T14:05:36.459Z,90464.44
2022-12-31T14:08:05.485Z,90467.48
2022-12-31T14:10:54.379Z,90473.21
2022-12-31T14:13:35.031Z,90476.79
2022-12-31T14:16:23.443Z,90473.21
2022-12-31T14:19:40.889Z,90475.68
2022-12-31T14:22:27.050Z,90481.13
2022-12-31T14:24:56.281Z,90486.42
2022-12-31T14:27:30.122Z,90488.41
2022-12-31T14:30:06.583Z,90491.88
2022-12-31T14:32:55.676Z,90490.94
2022-12-31T14:36:10.532Z,90494.44
2022-12-31T14:38:46.971Z,90498.21
2022-12-31T14:41:40.564Z,90499.73
2022-12-31T14:44:44.497Z,90504.48
2022-12-31T14:47:36.938Z,90515.09
2022-12-31T14:50:17.603Z,90514.59
2022-12-31T14:53:06.776Z,90519.35
2022-12-31T14:55:38.027Z,90519.39
2022-12-31T14:58:28.680Z,90524.80
2022-12-31T15:01:00.681Z,90531.89
2022-12-31T15:03:31.007Z,90536.73
2022-12-31T15:06:35.974Z,90537.83
2022-12-31T15:09:18.458Z,90535.80
2022-12-31T15:12:11.887Z,90532.90
2022-12-31T15:14:54.005Z,90536.07
2022-12-31T15:17:33.892Z,90532.98
2022-12-31T15:20:28.961Z,90527.91
2022-12-31T15:22:55.441Z,90528.63
2022-12-31T15:25:41.050Z,90528.37
2022-12-31T15:28:32.611Z,90527.94
2022-12-31T15:31:19.001Z,90529.05
2022-12-31T15:34:01.382Z,90537.82
2022-12-31T15:36:35.329Z,90540.07
2022-12-31T15:39:22.204Z,90540.23
2022-12-31T15:42:35.583Z,90540.54
2022-12-31T15:44:37.081Z,90540.83
2022-12-31T15:47:25.649Z,90542.34
2022-12-31T15:49:52.582Z,90543.20
2022-12-31T15:52:44.606Z,90540.81
2022-12-31T15:55:48.607Z,90538.02
2022-12-31T15:58:22.784Z,90540.88
2022-12-31T16:01:09.588Z,90545.45
2022-12-31T16:03:37.402Z,90542.45
2022-12-31T16:06:10.763Z,90547.54
2022-12-31T16:08:38.528Z,90545.99
2022-12-31T16:11:08.129Z,90552.83
2022-12-31T16:13:39.365Z,90562.73
2022-12-31T16:16:18.921Z,90570.56
2022-12-31T16:18:46.676Z,90575.44
2022-12-31T16:21:32.908Z,90578.56
2022-12-31T16:25:10.881Z,90581.96
2022-12-31T16:27:35.465Z,90580.18
2022-12-31T16:30:08.052Z,90584.05
2022-12-31T16:32:38.006Z,90583.95
2022-12-31T16:35:32.530Z,90575.89
2022-12-31T16:38:17.072Z,90588.09
2022-12-31T16:40:59.162Z,90587.31
2022-12-31T16:43:27.874Z,90590.99
2022-12-31T16:45:57.590Z,90590.27
2022-12-31T16:48:25.219Z,90587.33
2022-12-31T16:50:54.535Z,90590.20
2022-12-31T16:53:24.270Z,90587.74
2022-12-31T16:56:04.276Z,90586.95
2022-12-31T16:58:48.028Z,90587.77
2022-12-31T17:01:23.347Z,90585.73
2022-12-31T17:03:54.231Z,90591.60
2022-12-31T17:06:22.000Z,90594.55
2022-12-31T17:08:59.962Z,90601.59
2022-12-31T17:11:35.123Z,90610.75
2022-12-31T17:14:08.793Z,90610.60
2022-12-31T17:16:39.831Z,90614.58
2022-12-31T17:19:06.910Z,90620.42
2022-12-31T17:21:33.872Z,90620.27
2022-12-31T17:24:04.351Z,90622.77
2022-12-31T17:26:35.083Z,90624.45
2022-12-31T17:29:04.896Z,90624.31
2022-12-31T17:31:40.071Z,90630.48
2022-12-31T17:34:31.383Z,90630.33
2022-12-31T17:37:11.585Z,90630.05
2022-12-31T17:39:43.596Z,90628.42
2022-12-31T17:42:11.765Z,90633.57
2022-12-31T17:44:42.571Z,90635.08
2022-12-31T17:47:13.816Z,90636.01
2022-12-31T17:49:43.996Z,90638.89
2022-12-31T17:52:13.890Z,90644.68
2022-12-31T17:54:41.196Z,90644.44
2022-12-31T17:57:25.733Z,90642.72
2022-12-31T17:59:52.556Z,90642.17
2022-12-31T18:02:20.222Z,90638.23
2022-12-31T18:04:47.205Z,90640.04
2022-12-31T18:07:14.021Z,90640.12
2022-12-31T18:09:40.711Z,90640.70
2022-12-31T18:12:08.096Z,90640.02
2022-12-31T18:14:34.725Z,90644.80
2022-12-31T18:17:01.706Z,90644.45
2022-12-31T18:22:16.750Z,90650.55
2022-12-31T18:24:44.079Z,90644.55
2022-12-31T18:27:18.833Z,90646.17
2022-12-31T18:29:46.707Z,90642.48
2022-12-31T18:32:22.101Z,90644.63
2022-12-31T18:34:50.159Z,90646.59
2022-12-31T18:37:22.039Z,90642.58
2022-12-31T18:39:49.873Z,90646.15
2022-12-31T18:42:18.509Z,90649.44
2022-12-31T18:44:46.314Z,90646.30
2022-12-31T18:47:22.918Z,90641.88
2022-12-31T18:49:50.802Z,90646.20
2022-12-31T18:52:21.010Z,90644.14
2022-12-31T18:54:48.479Z,90649.00
2022-12-31T18:57:16.235Z,90656.32
2022-12-31T18:59:43.599Z,90661.86
2022-12-31T19:02:19.359Z,90663.96
2022-12-31T19:04:47.788Z,90669.65
2022-12-31T19:07:14.849Z,90669.37
2022-12-31T19:09:45.940Z,90667.55
2022-12-31T19:12:14.563Z,90664.10
2022-12-31T19:14:41.562Z,90663.40
2022-12-31T19:19:34.900Z,90666.78
2022-12-31T19:22:02.453Z,90667.65
2022-12-31T19:24:29.794Z,90665.56
2022-12-31T19:26:56.679Z,90668.26
2022-12-31T19:29:27.527Z,90669.59
2022-12-31T19:31:55.049Z,90669.22
2022-12-31T19:34:21.985Z,90673.14
2022-12-31T19:36:49.107Z,90671.68
2022-12-31T19:39:19.148Z,90669.21
2022-12-31T19:41:49.160Z,90673.09
2022-12-31T19:44:22.322Z,90670.96
2022-12-31T19:46:49.323Z,90672.95
2022-12-31T19:49:16.599Z,90681.95
2022-12-31T19:51:43.436Z,90680.78
2022-12-31T19:54:12.685Z,90678.48
2022-12-31T19:56:39.945Z,90678.09
2022-12-31T19:59:08.834Z,90678.79
2022-12-31T20:01:36.055Z,90681.98
2022-12-31T20:04:03.640Z,90685.23
2022-12-31T20:06:30.377Z,90684.90
2022-12-31T20:08:57.581Z,90687.61
2022-12-31T20:11:24.899Z,90690.33
2022-12-31T20:13:53.429Z,90691.88
2022-12-31T20:16:22.931Z,90692.20
2022-12-31T20:18:50.267Z,90692.71
2022-12-31T20:21:23.218Z,90688.17
2022-12-31T20:23:51.616Z,90688.45
2022-12-31T20:26:19.984Z,90690.98
2022-12-31T20:28:47.304Z,90691.30
2022-12-31T20:31:20.971Z,90692.27
2022-12-31T20:33:48.188Z,90694.58
2022-12-31T20:36:16.068Z,90694.73
2022-12-31T20:38:44.119Z,90698.17
2022-12-31T20:41:14.527Z,90691.98
2022-12-31T20:43:41.994Z,90690.70
2022-12-31T20:46:15.949Z,90690.33
2022-12-31T20:48:44.060Z,90689.52
2022-12-31T20:51:11.586Z,90690.29
2022-12-31T20:53:38.903Z,90690.48
2022-12-31T20:56:07.423Z,90695.54
2022-12-31T20:58:34.628Z,90695.70
2022-12-31T21:01:02.121Z,90697.63
2022-12-31T21:06:16.974Z,90693.51
2022-12-31T21:08:44.084Z,90696.58
2022-12-31T21:11:30.381Z,90693.19
2022-12-31T21:13:58.623Z,90694.31
2022-12-31T21:16:26.892Z,90692.31
2022-12-31T21:18:54.084Z,90694.68
2022-12-31T21:21:21.545Z,90693.54
2022-12-31T21:23:48.657Z,90691.17
2022-12-31T21:26:16.209Z,90691.52
2022-12-31T21:28:43.500Z,90689.89
2022-12-31T21:31:12.638Z,90686.06
2022-12-31T21:33:43.647Z,90685.73
2022-12-31T21:36:11.453Z,90684.95
2022-12-31T21:38:38.568Z,90686.24
2022-12-31T21:41:07.014Z,90685.49
2022-12-31T21:43:34.789Z,90679.98
2022-12-31T21:46:06.943Z,90686.20
2022-12-31T21:48:34.218Z,90687.73
2022-12-31T21:51:07.740Z,90689.41
2022-12-31T21:53:37.207Z,90690.27
2022-12-31T21:56:08.663Z,90691.36
2022-12-31T21:58:39.404Z,90694.09
2022-12-31T22:01:26.586Z,90698.15
2022-12-31T22:03:54.139Z,90696.80
2022-12-31T22:06:22.796Z,90697.70
2022-12-31T22:08:52.319Z,90698.02
2022-12-31T22:11:21.387Z,90700.40
2022-12-31T22:13:48.376Z,90699.73
2022-12-31T22:16:16.778Z,90697.09
2022-12-31T22:18:44.147Z,90701.11
2022-12-31T22:21:24.987Z,90694.80
2022-12-31T22:23:56.459Z,90693.73
2022-12-31T22:26:25.603Z,90694.84
2022-12-31T22:28:52.597Z,90696.63
2022-12-31T22:31:22.799Z,90693.02
2022-12-31T22:33:50.531Z,90692.38
2022-12-31T22:36:20.141Z,90690.57
2022-12-31T22:38:48.169Z,90692.70
2022-12-31T22:41:20.689Z,90693.70
2022-12-31T22:43:50.639Z,90693.93
2022-12-31T22:46:20.826Z,90690.31
2022-12-31T22:48:48.114Z,90686.47
2022-12-31T22:51:16.015Z,90683.77
2022-12-31T22:53:43.197Z,90688.11
2022-12-31T22:56:12.431Z,90687.15
2022-12-31T22:58:39.570Z,90682.61
2022-12-31T23:01:13.137Z,90683.44
2022-12-31T23:03:41.930Z,90686.00
2022-12-31T23:06:10.343Z,90687.25
2022-12-31T23:08:37.313Z,90684.45
2022-12-31T23:11:09.316Z,90684.23
2022-12-31T23:13:58.914Z,90680.86
2022-12-31T23:16:47.156Z,90676.93
2022-12-31T23:19:34.493Z,90678.48
2022-12-31T23:22:20.573Z,90678.68
2022-12-31T23:24:47.225Z,90682.02
2022-12-31T23:27:14.019Z,90677.92
2022-12-31T23:29:46.575Z,90677.36
2022-12-31T23:32:16.227Z,90676.58
2022-12-31T23:34:44.680Z,90676.10
2022-12-31T23:37:13.384Z,90678.69
2022-12-31T23:39:41.451Z,90677.17
2022-12-31T23:42:13.253Z,90674.52
2022-12-31T23:44:41.254Z,90672.84
2022-12-31T23:47:17.983Z,90671.05
2022-12-31T23:49:45.888Z,90672.23
2022-12-31T23:52:13.724Z,90674.06
2022-12-31T23:54:41.248Z,90677.38
2022-12-31T23:57:08.737Z,90675.62
2022-12-31T23:59:36.716Z,90670.31
